Time;durP1;ratioP1;P1;durP2;ratioP2;P2;SDS_P1;SDS_P2;PMS_P1;PMS_P2;Temp;Humidity;BMP_temperature;BMP_pressure;BME280_temperature;BME280_humidity;BME280_pressure;Samples;Min_cycle;Max_cycle;Signal;HPM_P1;HPM_P2
2023/05/05 00:02:09;;;;;;;12.40;11.07;;;;;;;17.15;68.80;101224.22;4940048;28;20029;-70
2023/05/05 00:04:34;;;;;;;11.77;10.55;;;;;;;17.12;68.49;101224.44;4866555;28;20090;-71
2023/05/05 00:06:59;;;;;;;14.63;11.40;;;;;;;17.02;69.38;101220.72;4889265;28;20132;-69
2023/05/05 00:09:25;;;;;;;11.95;10.75;;;;;;;16.97;69.64;101220.16;4906466;28;20060;-70
2023/05/05 00:11:50;;;;;;;12.55;11.18;;;;;;;16.89;70.07;101218.91;4880976;28;20505;-71
2023/05/05 00:14:16;;;;;;;12.73;11.35;;;;;;;16.81;70.48;101223.97;4867049;28;20051;-70
2023/05/05 00:16:41;;;;;;;13.23;11.68;;;;;;;16.77;70.84;101230.50;4904572;28;20061;-69
2023/05/05 00:19:06;;;;;;;14.27;11.57;;;;;;;16.69;71.74;101243.59;4920782;28;20033;-71
2023/05/05 00:21:32;;;;;;;12.35;11.13;;;;;;;16.62;71.81;101236.94;4868498;28;20029;-71
2023/05/05 00:23:58;;;;;;;14.20;11.98;;;;;;;16.59;72.45;101243.38;4867325;28;20037;-70
2023/05/05 00:26:23;;;;;;;13.32;12.02;;;;;;;16.61;72.70;101251.34;4867555;28;20091;-70
2023/05/05 00:28:48;;;;;;;13.82;12.43;;;;;;;16.51;73.87;101244.88;4868160;29;20458;-70
2023/05/05 00:31:15;;;;;;;14.77;13.15;;;;;;;16.49;74.13;101247.66;4867066;28;20124;-71
2023/05/05 00:33:40;;;;;;;20.23;13.77;;;;;;;16.48;74.45;101239.72;4929989;28;20021;-70
2023/05/05 00:36:06;;;;;;;15.82;13.98;;;;;;;16.46;75.05;101237.13;4909357;28;20036;-70
2023/05/05 00:38:31;;;;;;;16.40;14.73;;;;;;;16.42;75.27;101225.72;4867341;28;20052;-71
2023/05/05 00:40:57;;;;;;;15.25;13.75;;;;;;;16.41;75.68;101228.53;4867362;28;20157;-70
2023/05/05 00:43:22;;;;;;;15.35;13.85;;;;;;;16.33;76.28;101238.94;4865875;28;20029;-70
2023/05/05 00:45:56;;;;;;;16.45;14.70;;;;;;;16.32;76.60;101254.22;4867637;28;20387;-70
2023/05/05 00:48:23;;;;;;;15.48;13.93;;;;;;;16.32;76.73;101253.34;4867443;29;20111;-70
2023/05/05 00:50:48;;;;;;;18.30;15.13;;;;;;;16.24;78.00;101253.00;4886004;28;20025;-70
2023/05/05 00:53:14;;;;;;;16.52;14.93;;;;;;;16.16;77.92;101243.63;4925909;28;20041;-70
2023/05/05 00:55:40;;;;;;;18.23;16.23;;;;;;;16.13;78.31;101241.16;4884740;28;20169;-71
2023/05/05 00:58:05;;;;;;;17.33;15.63;;;;;;;16.15;78.49;101246.44;4867361;28;20032;-68
2023/05/05 01:00:31;;;;;;;18.02;16.08;;;;;;;16.10;78.82;101243.22;4867743;28;20422;-71
2023/05/05 01:02:56;;;;;;;19.45;16.13;;;;;;;16.08;79.21;101247.81;4865663;29;20031;-70
2023/05/05 01:05:24;;;;;;;17.67;15.73;;;;;;;16.07;79.16;101252.31;4868155;28;20222;-70
2023/05/05 01:08:05;;;;;;;18.35;16.45;;;;;;;16.04;78.84;101252.53;4901966;28;20332;-70
2023/05/05 01:10:57;;;;;;;17.55;15.85;;;;;;;16.03;78.62;101249.94;4945460;28;20328;-70
2023/05/05 01:13:48;;;;;;;19.42;17.42;;;;;;;16.00;78.71;101256.38;4880196;28;20039;-70
2023/05/05 01:16:22;;;;;;;18.10;16.30;;;;;;;15.89;80.37;101257.13;4894595;28;20064;-70
2023/05/05 01:18:59;;;;;;;19.45;17.23;;;;;;;15.86;80.39;101260.00;4878067;28;20020;-71
2023/05/05 01:21:30;;;;;;;19.38;17.35;;;;;;;15.84;80.78;101261.94;4883265;29;20106;-70
2023/05/05 01:24:11;;;;;;;19.90;17.88;;;;;;;15.84;80.75;101259.25;4879624;28;20083;-70
2023/05/05 01:26:53;;;;;;;18.23;16.42;;;;;;;15.87;80.57;101263.53;4905276;28;20026;-70
2023/05/05 01:29:30;;;;;;;19.77;17.75;;;;;;;15.86;81.02;101257.31;4921715;28;20039;-70
2023/05/05 01:32:01;;;;;;;18.63;16.75;;;;;;;15.93;80.37;101252.41;4931451;28;20045;-70
2023/05/05 01:34:33;;;;;;;19.08;17.17;;;;;;;15.96;80.05;101245.94;4880870;28;20330;-70
2023/05/05 01:37:10;;;;;;;18.80;16.90;;;;;;;15.96;79.79;101244.13;4872506;28;20083;-70
2023/05/05 01:39:37;;;;;;;19.35;17.35;;;;;;;15.87;80.65;101240.22;4872348;28;20112;-70
2023/05/05 01:42:07;;;;;;;19.40;17.40;;;;;;;15.79;81.18;101237.19;4873441;28;20025;-70
2023/05/05 01:44:35;;;;;;;19.27;17.13;;;;;;;15.72;81.10;101241.28;4871909;29;20504;-70
2023/05/05 01:47:03;;;;;;;19.10;17.13;;;;;;;15.68;81.09;101245.97;4935389;28;20061;-70
2023/05/05 01:49:31;;;;;;;20.27;18.17;;;;;;;15.58;81.66;101246.63;4969630;28;20032;-69
2023/05/05 01:51:57;;;;;;;19.52;17.42;;;;;;;15.50;82.35;101239.06;4873206;28;20112;-69
2023/05/05 01:54:24;;;;;;;19.58;17.67;;;;;;;15.45;82.53;101247.44;4871675;28;20033;-71
2023/05/05 01:56:52;;;;;;;19.35;17.33;;;;;;;15.33;82.81;101242.84;4889610;28;20025;-70
2023/05/05 01:59:19;;;;;;;20.30;18.10;;;;;;;15.31;83.31;101254.66;4872166;28;20094;-70
2023/05/05 02:01:47;;;;;;;19.98;18.02;;;;;;;15.19;83.58;101258.97;4872100;28;20266;-70
2023/05/05 02:04:16;;;;;;;20.48;18.20;;;;;;;15.12;84.03;101269.22;4888679;28;20050;-70
2023/05/05 02:06:44;;;;;;;20.38;18.48;;;;;;;15.10;84.38;101265.78;4902362;28;20276;-70
2023/05/05 02:09:11;;;;;;;20.35;18.25;;;;;;;15.02;84.37;101256.50;4876631;28;20037;-70
2023/05/05 02:11:37;;;;;;;19.85;17.75;;;;;;;14.98;85.36;101265.69;4872485;28;20115;-71
2023/05/05 02:14:05;;;;;;;19.52;17.52;;;;;;;14.89;85.20;101265.31;4872208;28;20124;-71
2023/05/05 02:16:32;;;;;;;19.20;17.35;;;;;;;14.82;85.42;101276.50;4906758;28;20110;-70
2023/05/05 02:19:03;;;;;;;20.10;17.08;;;;;;;14.71;86.34;101279.81;4882246;28;20027;-71
2023/05/05 02:21:29;;;;;;;20.48;18.38;;;;;;;14.61;87.29;101271.50;4951365;28;20100;-70
2023/05/05 02:23:54;;;;;;;20.83;18.42;;;;;;;14.58;87.58;101269.00;4870532;29;20060;-70
2023/05/05 02:26:23;;;;;;;20.45;18.45;;;;;;;14.54;87.14;101272.81;4906418;28;20029;-70
2023/05/05 02:29:01;;;;;;;22.25;19.73;;;;;;;14.47;87.09;101271.47;4869421;28;20041;-71
2023/05/05 02:31:28;;;;;;;23.80;21.23;;;;;;;14.44;87.88;101274.31;4870465;28;20037;-71
2023/05/05 02:33:56;;;;;;;24.02;20.50;;;;;;;14.35;88.33;101282.91;4868666;28;20033;-70
2023/05/05 02:36:24;;;;;;;23.90;21.38;;;;;;;14.31;88.95;101276.84;4869791;28;20607;-71
2023/05/05 02:38:57;;;;;;;24.90;21.02;;;;;;;14.27;89.05;101277.13;4869188;28;20096;-70
2023/05/05 02:41:26;;;;;;;23.65;20.67;;;;;;;14.26;89.23;101275.41;4895543;28;20193;-71
2023/05/05 02:43:53;;;;;;;24.30;21.20;;;;;;;14.22;89.29;101280.09;4918962;28;20095;-71
2023/05/05 02:46:19;;;;;;;23.55;20.90;;;;;;;14.19;89.27;101283.78;4931254;28;20031;-71
2023/05/05 02:48:44;;;;;;;25.92;21.63;;;;;;;14.07;90.04;101295.22;4875933;28;20053;-71
2023/05/05 02:51:10;;;;;;;23.98;21.27;;;;;;;14.03;89.96;101284.78;4932659;28;20401;-70
2023/05/05 02:53:35;;;;;;;26.98;20.25;;;;;;;14.03;89.93;101299.03;4881562;28;20493;-71
2023/05/05 02:56:20;;;;;;;24.25;20.23;;;;;;;13.98;90.46;101301.13;4906751;28;20037;-69
2023/05/05 02:58:49;;;;;;;24.27;20.13;;;;;;;13.91;90.49;101297.06;4889093;28;20112;-71
2023/05/05 03:01:51;;;;;;;23.70;21.20;;;;;;;13.98;89.80;101302.94;4898572;28;20053;-70
2023/05/05 03:04:33;;;;;;;22.50;20.08;;;;;;;13.88;90.72;101300.78;4868500;28;20033;-70
2023/05/05 03:07:05;;;;;;;21.63;19.42;;;;;;;13.87;91.10;101298.19;4870831;28;20124;-70
2023/05/05 03:09:57;;;;;;;20.92;18.85;;;;;;;13.83;91.41;101294.81;4883239;28;20540;-69
2023/05/05 03:12:27;;;;;;;21.27;19.00;;;;;;;13.87;91.07;101287.47;4890807;28;20058;-70
2023/05/05 03:14:55;;;;;;;21.58;19.42;;;;;;;13.85;90.92;101290.25;4878038;28;20064;-70
2023/05/05 03:17:21;;;;;;;22.33;19.48;;;;;;;13.81;91.10;101282.50;4883715;28;20338;-70
2023/05/05 03:19:49;;;;;;;20.73;18.55;;;;;;;13.75;91.61;101293.53;4944905;28;20106;-70
2023/05/05 03:22:15;;;;;;;21.13;18.88;;;;;;;13.68;91.71;101309.09;4868829;28;20044;-70
2023/05/05 03:24:40;;;;;;;20.98;18.88;;;;;;;13.64;92.08;101303.03;4907855;28;20448;-70
2023/05/05 03:27:05;;;;;;;20.65;18.27;;;;;;;13.67;91.70;101308.22;4873713;28;20401;-69
2023/05/05 03:29:31;;;;;;;20.10;17.88;;;;;;;13.60;91.89;101311.31;4915600;28;20037;-69
2023/05/05 03:31:57;;;;;;;21.63;19.33;;;;;;;13.55;92.76;101318.75;4909262;28;20029;-69
2023/05/05 03:34:23;;;;;;;21.48;18.95;;;;;;;13.56;92.15;101323.16;4886543;28;20053;-69
2023/05/05 03:36:48;;;;;;;20.83;18.75;;;;;;;13.51;92.20;101319.88;4938320;28;20025;-70
2023/05/05 03:39:13;;;;;;;20.10;18.10;;;;;;;13.49;92.21;101317.25;4892636;28;20023;-70
2023/05/05 03:41:39;;;;;;;20.50;18.40;;;;;;;13.52;92.52;101317.09;4918585;28;20638;-70
2023/05/05 03:44:07;;;;;;;20.98;18.77;;;;;;;13.43;92.46;101310.44;4886006;28;20113;-70
2023/05/05 03:46:33;;;;;;;20.33;18.27;;;;;;;13.41;92.39;101309.66;4915872;28;20025;-70
2023/05/05 03:48:58;;;;;;;19.88;17.88;;;;;;;13.38;92.42;101312.53;4901762;28;20033;-70
2023/05/05 03:51:24;;;;;;;20.17;18.27;;;;;;;13.32;92.66;101310.16;4887083;28;20052;-71
2023/05/05 03:53:49;;;;;;;20.27;18.25;;;;;;;13.28;93.52;101313.97;4880862;28;20485;-70
2023/05/05 03:56:15;;;;;;;18.42;16.63;;;;;;;13.30;92.55;101316.56;4910317;28;20029;-70
2023/05/05 03:58:40;;;;;;;19.20;17.38;;;;;;;13.29;92.96;101318.34;4933742;28;20099;-70
2023/05/05 04:01:07;;;;;;;17.20;15.52;;;;;;;13.26;92.70;101321.22;4888560;28;20092;-70
2023/05/05 04:03:32;;;;;;;19.83;16.88;;;;;;;13.19;92.98;101323.31;4869374;28;20048;-70
2023/05/05 04:05:58;;;;;;;18.17;16.38;;;;;;;13.19;92.60;101325.97;4874367;28;20505;-72
2023/05/05 04:08:23;;;;;;;17.20;15.50;;;;;;;13.17;92.66;101330.56;4906050;28;20433;-71
2023/05/05 04:10:48;;;;;;;19.23;16.98;;;;;;;13.09;92.59;101321.22;4874726;28;20028;-70
2023/05/05 04:13:14;;;;;;;18.70;16.70;;;;;;;13.10;92.94;101330.97;4869061;28;20111;-70
2023/05/05 04:15:44;;;;;;;18.40;16.45;;;;;;;13.10;92.95;101329.16;4947361;28;20108;-70
2023/05/05 04:18:10;;;;;;;17.85;15.93;;;;;;;13.14;92.61;101335.22;4947309;28;20061;-70
2023/05/05 04:20:35;;;;;;;18.73;16.83;;;;;;;13.09;93.13;101335.47;4895730;28;20045;-70
2023/05/05 04:23:01;;;;;;;18.00;16.10;;;;;;;13.08;92.56;101332.84;4963494;28;20218;-70
2023/05/05 04:25:26;;;;;;;18.85;16.83;;;;;;;13.03;92.86;101332.22;4889079;28;20072;-70
2023/05/05 04:27:51;;;;;;;19.52;16.52;;;;;;;13.03;93.04;101338.44;4881984;28;20281;-70
2023/05/05 04:30:17;;;;;;;18.10;16.20;;;;;;;12.98;93.24;101342.31;4913746;28;20026;-70
2023/05/05 04:32:42;;;;;;;18.30;16.48;;;;;;;13.05;92.96;101344.59;4888839;28;20064;-71
2023/05/05 04:35:08;;;;;;;18.13;15.18;;;;;;;13.00;93.23;101332.38;4898940;28;20044;-70
2023/05/05 04:37:33;;;;;;;18.25;16.42;;;;;;;12.99;93.58;101339.53;4871754;28;20065;-70
2023/05/05 04:39:58;;;;;;;17.48;15.77;;;;;;;13.05;92.86;101347.25;4867033;28;20410;-70
2023/05/05 04:42:24;;;;;;;18.92;15.90;;;;;;;13.02;92.92;101347.41;4885728;28;20037;-70
2023/05/05 04:44:49;;;;;;;18.30;16.40;;;;;;;13.02;92.87;101344.75;4873454;28;20330;-70
2023/05/05 04:47:15;;;;;;;17.10;15.30;;;;;;;13.00;92.58;101343.06;4884954;28;20407;-70
2023/05/05 04:49:40;;;;;;;17.52;15.73;;;;;;;13.01;92.64;101339.47;4876342;29;20029;-70
2023/05/05 04:52:06;;;;;;;18.00;16.20;;;;;;;13.01;92.61;101335.00;4866989;29;20040;-71
2023/05/05 04:54:35;;;;;;;16.98;15.00;;;;;;;13.05;92.51;101347.25;4872849;28;20040;-70
2023/05/05 04:57:01;;;;;;;17.65;15.75;;;;;;;13.05;92.21;101341.06;4958161;28;20507;-71
2023/05/05 04:59:26;;;;;;;17.48;15.70;;;;;;;13.12;92.42;101340.63;4914378;28;20256;-70
2023/05/05 05:01:51;;;;;;;18.15;15.50;;;;;;;13.12;91.92;101343.28;4881929;28;20132;-70
2023/05/05 05:04:17;;;;;;;16.23;14.73;;;;;;;13.13;91.91;101330.81;4930795;28;20076;-71
2023/05/05 05:06:44;;;;;;;17.02;15.30;;;;;;;13.15;91.62;101334.25;4946474;28;20030;-70
2023/05/05 05:09:10;;;;;;;18.02;16.15;;;;;;;13.18;92.01;101326.94;4872632;28;20040;-70
2023/05/05 05:11:35;;;;;;;20.48;18.27;;;;;;;13.18;91.82;101326.06;4866705;29;20041;-70
2023/05/05 05:14:00;;;;;;;16.50;14.82;;;;;;;13.22;91.69;101316.94;4866447;29;20036;-71
2023/05/05 05:16:26;;;;;;;20.30;17.95;;;;;;;13.26;91.18;101320.34;4892299;28;20054;-71
2023/05/05 05:18:51;;;;;;;17.83;15.48;;;;;;;13.33;90.67;101319.03;4881366;28;20033;-71
2023/05/05 05:21:16;;;;;;;16.85;15.15;;;;;;;13.32;90.56;101323.53;4901333;28;20029;-72
2023/05/05 05:23:42;;;;;;;16.65;14.88;;;;;;;13.35;89.80;101328.72;4866893;29;20040;-71
2023/05/05 05:26:07;;;;;;;18.35;16.55;;;;;;;13.41;90.30;101328.38;4946667;28;20036;-71
2023/05/05 05:28:32;;;;;;;18.25;16.45;;;;;;;13.40;91.50;101326.66;4866605;28;20033;-71
2023/05/05 05:30:58;;;;;;;17.35;15.63;;;;;;;13.50;91.04;101337.69;4865661;28;20240;-71
2023/05/05 05:33:23;;;;;;;16.35;14.65;;;;;;;13.54;91.04;101339.25;4871217;29;20155;-71
2023/05/05 05:35:48;;;;;;;17.88;15.32;;;;;;;13.53;90.58;101350.06;4884639;28;20021;-71
2023/05/05 05:38:14;;;;;;;17.55;15.80;;;;;;;13.53;90.64;101339.34;4917663;28;20088;-71
2023/05/05 05:40:39;;;;;;;18.13;15.85;;;;;;;13.62;90.69;101353.06;4904179;28;20096;-71
2023/05/05 05:43:05;;;;;;;17.17;15.32;;;;;;;13.78;90.55;101360.25;4927620;28;20088;-71
2023/05/05 05:45:30;;;;;;;17.33;15.52;;;;;;;13.95;89.48;101365.50;4927556;28;20058;-71
2023/05/05 05:47:55;;;;;;;16.65;15.05;;;;;;;14.16;88.91;101366.09;4879421;28;20176;-71
2023/05/05 05:50:21;;;;;;;17.23;15.45;;;;;;;14.34;87.47;101366.88;4864580;28;20041;-71
2023/05/05 05:52:46;;;;;;;16.45;14.73;;;;;;;14.55;85.48;101378.19;4865758;28;20124;-71
2023/05/05 05:55:12;;;;;;;15.98;14.38;;;;;;;14.64;84.54;101391.88;4867530;28;20037;-71
2023/05/05 05:57:37;;;;;;;15.23;13.80;;;;;;;14.81;85.02;101396.22;4872628;28;20397;-70
2023/05/05 06:00:03;;;;;;;14.88;13.38;;;;;;;14.89;84.43;101404.69;4880573;28;20228;-71
2023/05/05 06:02:28;;;;;;;15.48;13.82;;;;;;;15.07;83.63;101412.56;4868764;28;20079;-71
2023/05/05 06:04:54;;;;;;;13.98;12.55;;;;;;;15.22;81.92;101408.09;4943009;28;20120;-71
2023/05/05 06:07:19;;;;;;;13.77;12.48;;;;;;;15.26;82.15;101426.59;4878063;28;20449;-71
2023/05/05 06:09:44;;;;;;;14.13;12.55;;;;;;;15.30;81.53;101422.75;4869947;29;20025;-70
2023/05/05 06:12:10;;;;;;;15.02;12.48;;;;;;;15.37;82.33;101420.53;4874792;28;20037;-70
2023/05/05 06:14:35;;;;;;;14.30;12.90;;;;;;;15.56;81.83;101415.78;4869954;29;20033;-70
2023/05/05 06:17:01;;;;;;;12.52;11.23;;;;;;;15.79;79.40;101411.66;4894849;28;20111;-70
2023/05/05 06:19:26;;;;;;;13.45;12.07;;;;;;;15.93;79.13;101416.16;4877635;28;20032;-70
2023/05/05 06:21:51;;;;;;;12.52;11.32;;;;;;;16.11;78.94;101417.66;4875660;28;20032;-70
2023/05/05 06:24:17;;;;;;;11.45;10.25;;;;;;;16.23;78.72;101423.19;4873447;28;20033;-70
2023/05/05 06:26:42;;;;;;;12.98;11.68;;;;;;;16.28;78.53;101429.97;4929831;28;20149;-70
2023/05/05 06:29:07;;;;;;;12.60;11.30;;;;;;;16.44;78.82;101419.94;4873631;28;20489;-71
2023/05/05 06:31:33;;;;;;;13.70;11.82;;;;;;;16.54;78.13;101428.25;4906684;28;20580;-70
2023/05/05 06:33:58;;;;;;;12.23;11.05;;;;;;;16.62;77.53;101425.06;4898765;28;20454;-70
2023/05/05 06:36:23;;;;;;;11.40;10.20;;;;;;;16.69;77.29;101421.00;4922779;28;20049;-70
2023/05/05 06:38:49;;;;;;;11.98;10.35;;;;;;;16.88;78.29;101410.72;4890583;28;20374;-70
2023/05/05 06:41:15;;;;;;;12.00;10.80;;;;;;;17.14;76.94;101411.66;4896380;28;20033;-71
2023/05/05 06:43:41;;;;;;;13.38;10.75;;;;;;;17.32;75.91;101416.72;4887614;28;20028;-71
2023/05/05 06:46:07;;;;;;;13.02;11.30;;;;;;;17.46;75.06;101413.91;4915547;28;20499;-71
2023/05/05 06:48:33;;;;;;;13.30;11.52;;;;;;;17.49;75.17;101410.13;4935172;28;20023;-71
2023/05/05 06:50:58;;;;;;;16.40;12.52;;;;;;;17.62;75.25;101425.28;4897889;28;20025;-71
2023/05/05 06:53:23;;;;;;;13.48;11.30;;;;;;;17.78;74.27;101413.47;4899528;28;20115;-70
2023/05/05 06:55:48;;;;;;;13.82;12.15;;;;;;;17.95;73.25;101412.25;4892106;28;20032;-71
2023/05/05 06:58:14;;;;;;;14.73;11.98;;;;;;;18.19;72.31;101413.16;4873279;28;20051;-71
2023/05/05 07:00:39;;;;;;;13.88;11.90;;;;;;;18.41;72.67;101415.09;4933551;28;20292;-71
2023/05/05 07:03:05;;;;;;;13.05;10.90;;;;;;;18.61;70.34;101416.31;4900592;28;20040;-71
2023/05/05 07:05:31;;;;;;;12.68;10.82;;;;;;;18.74;69.20;101413.56;4865767;28;20494;-71
2023/05/05 07:07:57;;;;;;;12.38;10.38;;;;;;;18.74;69.13;101422.50;4879853;28;20583;-70
2023/05/05 07:10:23;;;;;;;12.02;9.90;;;;;;;18.96;68.83;101426.25;4869760;29;20516;-71
2023/05/05 07:12:50;;;;;;;10.10;8.52;;;;;;;19.17;66.32;101432.69;4862496;28;20398;-70
2023/05/05 07:15:16;;;;;;;11.05;9.38;;;;;;;19.52;64.32;101429.06;4868332;28;20560;-71
2023/05/05 07:17:42;;;;;;;9.43;8.35;;;;;;;19.81;63.50;101424.06;4868095;28;20048;-70
2023/05/05 07:20:08;;;;;;;10.77;8.38;;;;;;;19.93;61.87;101439.28;4863701;28;20033;-71
2023/05/05 07:22:33;;;;;;;8.05;7.25;;;;;;;20.23;60.36;101435.94;4894667;28;20040;-71
2023/05/05 07:24:59;;;;;;;8.25;6.40;;;;;;;20.31;58.96;101441.56;4867052;28;20099;-70
2023/05/05 07:27:24;;;;;;;8.40;6.93;;;;;;;19.99;59.03;101443.34;4866245;28;20119;-71
2023/05/05 07:29:50;;;;;;;7.00;6.15;;;;;;;19.74;59.03;101447.16;4866753;28;20461;-71
2023/05/05 07:32:15;;;;;;;8.90;6.38;;;;;;;19.45;59.69;101453.00;4867984;28;20165;-70
2023/05/05 07:34:40;;;;;;;8.43;6.82;;;;;;;19.35;60.52;101452.88;4866233;29;20547;-70
2023/05/05 07:37:06;;;;;;;6.60;5.30;;;;;;;19.39;60.83;101451.63;4867940;28;20044;-70
2023/05/05 07:39:32;;;;;;;7.80;6.78;;;;;;;19.40;61.05;101447.09;4867490;28;20575;-70
2023/05/05 07:41:57;;;;;;;7.50;6.70;;;;;;;19.63;60.31;101437.22;4867704;29;20041;-70
2023/05/05 07:44:22;;;;;;;7.90;7.07;;;;;;;19.60;59.51;101426.59;4864200;29;20056;-70
2023/05/05 07:46:48;;;;;;;9.80;7.93;;;;;;;19.41;59.96;101429.94;4886877;28;20028;-71
2023/05/05 07:49:13;;;;;;;11.50;9.00;;;;;;;19.22;61.02;101438.59;4880510;28;20326;-70
2023/05/05 07:51:39;;;;;;;10.07;8.00;;;;;;;19.31;60.79;101437.00;4894911;28;20185;-71
2023/05/05 07:54:04;;;;;;;9.35;8.45;;;;;;;19.30;60.67;101430.75;4869423;28;20438;-71
2023/05/05 07:56:30;;;;;;;9.43;8.52;;;;;;;19.64;61.33;101428.97;4944773;28;20094;-71
2023/05/05 07:58:55;;;;;;;7.97;7.18;;;;;;;19.88;59.19;101431.56;4932412;28;20055;-71
2023/05/05 08:01:21;;;;;;;7.47;6.50;;;;;;;20.15;57.49;101417.66;4889799;28;20041;-69
2023/05/05 08:03:46;;;;;;;9.73;7.97;;;;;;;20.37;56.99;101419.44;4869164;28;20033;-70
2023/05/05 08:06:15;;;;;;;7.22;6.00;;;;;;;20.49;54.55;101414.88;4868340;29;20029;-70
2023/05/05 08:08:41;;;;;;;8.65;6.43;;;;;;;20.46;55.83;101423.22;4869440;29;20192;-70
2023/05/05 08:11:09;;;;;;;9.85;6.80;;;;;;;20.79;55.55;101422.25;4873088;28;20124;-70
2023/05/05 08:13:34;;;;;;;9.88;6.90;;;;;;;21.79;52.08;101421.75;4880902;28;20031;-70
2023/05/05 08:15:59;;;;;;;8.18;6.15;;;;;;;23.12;49.73;101428.53;4871449;29;20036;-70
2023/05/05 08:18:25;;;;;;;8.93;6.90;;;;;;;24.08;47.90;101426.50;4877807;28;20536;-70
2023/05/05 08:20:51;;;;;;;6.82;5.93;;;;;;;25.20;45.22;101429.66;4866152;29;20036;-70
2023/05/05 08:23:17;;;;;;;6.47;5.55;;;;;;;25.73;41.16;101428.63;4870561;28;20095;-70
2023/05/05 08:25:43;;;;;;;6.95;5.30;;;;;;;25.13;42.48;101425.88;4880090;28;20044;-70
2023/05/05 08:28:08;;;;;;;8.63;6.70;;;;;;;25.03;42.61;101430.53;4873170;28;20095;-70
2023/05/05 08:30:34;;;;;;;8.40;5.75;;;;;;;25.05;42.49;101433.97;4867492;29;20079;-70
2023/05/05 08:32:59;;;;;;;6.97;4.22;;;;;;;25.11;40.82;101427.91;4866074;29;20041;-70
2023/05/05 08:35:25;;;;;;;5.32;4.22;;;;;;;25.27;40.78;101435.34;4900476;28;20489;-71
2023/05/05 08:37:50;;;;;;;5.93;4.82;;;;;;;25.24;40.61;101425.59;4915310;28;20038;-71
2023/05/05 08:40:16;;;;;;;7.45;5.60;;;;;;;25.16;40.93;101421.97;4871767;28;20040;-70
2023/05/05 08:42:43;;;;;;;4.40;4.00;;;;;;;25.25;40.58;101427.34;4867966;28;20266;-71
2023/05/05 08:45:09;;;;;;;6.75;4.75;;;;;;;25.20;40.43;101435.13;4878380;28;20153;-71
2023/05/05 08:47:36;;;;;;;5.13;4.63;;;;;;;25.43;40.11;101431.88;4867803;28;20065;-71
2023/05/05 08:50:01;;;;;;;4.18;3.25;;;;;;;25.31;38.65;101431.28;4916538;28;20600;-70
2023/05/05 08:52:30;;;;;;;5.85;3.78;;;;;;;25.03;40.39;101441.41;4876019;28;20545;-71
2023/05/05 08:55:12;;;;;;;6.00;5.40;;;;;;;24.95;42.02;101436.75;4864927;28;20037;-70
2023/05/05 08:57:55;;;;;;;6.25;4.40;;;;;;;24.18;41.87;101446.34;4944212;28;20093;-72
2023/05/05 09:00:21;;;;;;;4.85;3.97;;;;;;;23.64;43.01;101444.41;4868339;28;20045;-71
2023/05/05 09:02:47;;;;;;;6.03;4.05;;;;;;;23.14;45.07;101450.97;4938379;28;20089;-72
2023/05/05 09:05:12;;;;;;;6.55;4.85;;;;;;;22.50;46.25;101446.09;4883611;28;20481;-72
2023/05/05 09:07:42;;;;;;;4.80;3.83;;;;;;;22.04;47.04;101444.81;4921071;28;20117;-72
2023/05/05 09:10:09;;;;;;;5.30;3.85;;;;;;;21.58;48.60;101443.47;4871684;28;20126;-72
2023/05/05 09:12:39;;;;;;;6.60;3.50;;;;;;;21.55;48.87;101447.28;4880318;28;20231;-70
2023/05/05 09:15:06;;;;;;;5.90;3.67;;;;;;;22.03;48.67;101435.81;4907097;28;20062;-70
2023/05/05 09:17:31;;;;;;;4.53;3.35;;;;;;;22.57;46.26;101441.78;4908240;28;20030;-70
2023/05/05 09:20:11;;;;;;;6.05;3.90;;;;;;;23.29;46.12;101440.50;4872305;28;20032;-70
2023/05/05 09:22:39;;;;;;;4.72;3.60;;;;;;;23.65;44.60;101438.84;4870563;28;20037;-70
2023/05/05 09:25:06;;;;;;;6.10;3.58;;;;;;;23.63;43.83;101451.72;4931569;28;20489;-71
2023/05/05 09:27:36;;;;;;;6.35;3.42;;;;;;;23.38;44.24;101452.34;4867068;29;20037;-71
2023/05/05 09:30:02;;;;;;;5.22;3.25;;;;;;;23.11;44.43;101448.53;4866255;28;20049;-71
2023/05/05 09:32:28;;;;;;;4.50;3.05;;;;;;;22.92;45.04;101440.41;4866542;29;20048;-70
2023/05/05 09:35:00;;;;;;;4.63;2.90;;;;;;;22.62;45.34;101445.81;4866907;29;20248;-71
2023/05/05 09:37:30;;;;;;;4.38;2.75;;;;;;;22.26;45.09;101438.31;4869917;29;20098;-70
2023/05/05 09:39:59;;;;;;;5.20;2.90;;;;;;;22.13;46.83;101446.72;4869257;29;20029;-71
2023/05/05 09:42:25;;;;;;;4.00;2.75;;;;;;;21.94;46.51;101441.19;4878291;28;20036;-70
2023/05/05 09:44:51;;;;;;;4.28;2.53;;;;;;;21.68;47.45;101441.66;4883578;28;20060;-70
2023/05/05 09:47:17;;;;;;;3.33;2.33;;;;;;;21.60;48.40;101444.19;4869907;29;20533;-70
2023/05/05 09:49:42;;;;;;;4.60;2.65;;;;;;;21.57;48.31;101455.28;4868746;28;20033;-70
2023/05/05 09:52:14;;;;;;;3.58;2.15;;;;;;;21.38;47.22;101450.63;4927018;28;20382;-70
2023/05/05 09:54:43;;;;;;;3.10;1.85;;;;;;;21.08;48.23;101448.69;4867418;29;20140;-69
2023/05/05 09:57:27;;;;;;;3.13;2.15;;;;;;;21.05;49.36;101438.13;4877789;29;20103;-70
2023/05/05 09:59:57;;;;;;;4.38;2.15;;;;;;;20.84;50.51;101446.22;4931839;28;20501;-70
2023/05/05 10:02:33;;;;;;;3.72;2.60;;;;;;;20.69;50.85;101440.25;4866310;28;20095;-71
2023/05/05 10:05:15;;;;;;;3.58;2.40;;;;;;;20.63;50.99;101432.66;4866810;28;20028;-70
2023/05/05 10:07:42;;;;;;;4.75;2.13;;;;;;;20.55;50.88;101436.00;4916059;28;20086;-71
2023/05/05 10:10:25;;;;;;;4.93;2.55;;;;;;;20.56;51.37;101435.00;4877694;28;20534;-72
2023/05/05 10:12:53;;;;;;;4.22;2.60;;;;;;;20.58;51.93;101432.19;4874990;28;20064;-72
2023/05/05 10:15:18;;;;;;;2.55;1.63;;;;;;;20.38;49.00;101434.66;4874068;28;20558;-71
2023/05/05 10:17:46;;;;;;;4.88;1.50;;;;;;;20.31;49.32;101433.44;4880603;28;20037;-70
2023/05/05 10:20:14;;;;;;;5.65;2.08;;;;;;;20.22;50.76;101427.94;4884345;28;20038;-70
2023/05/05 10:22:43;;;;;;;2.95;1.83;;;;;;;19.84;53.81;101440.88;4877833;28;20028;-70
2023/05/05 10:25:12;;;;;;;5.70;2.72;;;;;;;19.26;58.97;101445.47;4880263;28;20033;-70
2023/05/05 10:27:51;;;;;;;3.90;2.83;;;;;;;18.51;64.73;101445.78;4878796;28;20043;-71
2023/05/05 10:30:28;;;;;;;5.80;2.88;;;;;;;17.76;66.92;101445.88;4886902;28;20062;-71
2023/05/05 10:32:59;;;;;;;4.07;2.80;;;;;;;17.32;78.98;101441.78;4871129;28;20064;-73
2023/05/05 10:35:26;;;;;;;7.78;3.50;;;;;;;17.06;87.11;101446.28;4879146;28;20037;-72
2023/05/05 10:37:53;;;;;;;6.53;3.28;;;;;;;16.68;86.85;101433.56;4906201;28;20693;-72
2023/05/05 10:40:21;;;;;;;7.07;4.28;;;;;;;16.36;86.99;101445.59;4897190;28;20022;-70
2023/05/05 10:42:47;;;;;;;6.05;4.00;;;;;;;16.08;91.45;101442.00;4881250;28;20030;-70
2023/05/05 10:45:13;;;;;;;8.95;5.93;;;;;;;15.90;93.28;101453.94;4869285;29;20112;-71
2023/05/05 10:47:39;;;;;;;5.60;4.70;;;;;;;15.75;95.74;101453.06;4881955;28;20265;-72
2023/05/05 10:50:12;;;;;;;6.88;4.55;;;;;;;15.63;97.43;101452.00;4893907;28;20041;-71
2023/05/05 10:52:56;;;;;;;;;;;;;;;15.36;89.77;101475.16;4881127;28;20051;-72
2023/05/05 10:55:28;;;;;;;6.25;4.68;;;;;;;15.29;100.00;101468.44;4880770;28;20380;-72
2023/05/05 10:57:54;;;;;;;10.02;5.45;;;;;;;15.38;100.00;101463.38;4871414;28;20033;-72
2023/05/05 11:00:38;;;;;;;6.38;4.78;;;;;;;15.39;100.00;101469.63;4883364;28;20763;-72
2023/05/05 11:03:16;;;;;;;10.23;5.95;;;;;;;15.48;100.00;101476.22;4881773;28;20038;-73
2023/05/05 11:06:03;;;;;;;10.05;5.90;;;;;;;15.48;100.00;101484.28;4869420;28;20135;-71
2023/05/05 11:08:33;;;;;;;10.85;6.82;;;;;;;15.30;100.00;101487.13;4934297;28;20029;-74
2023/05/05 11:10:59;;;;;;;8.50;6.82;;;;;;;15.06;100.00;101484.09;4895471;28;20130;-74
2023/05/05 11:13:25;;;;;;;13.35;8.15;;;;;;;14.81;100.00;101482.00;4878243;28;20642;-73
2023/05/05 11:15:53;;;;;;;10.43;9.13;;;;;;;14.89;100.00;101474.38;4869629;29;20037;-72
2023/05/05 11:18:28;;;;;;;11.05;8.07;;;;;;;14.86;100.00;101463.81;4893343;28;20029;-71